createdAt,value
2017-11-27T00:01:00.762Z,6.57
2017-11-27T00:03:30.749Z,7.03
2017-11-27T00:06:00.822Z,6.07
2017-11-27T00:08:30.864Z,6.37
2017-11-27T00:11:00.797Z,5.90
2017-11-27T00:13:30.886Z,7.00
2017-11-27T00:16:01.056Z,6.23
2017-11-27T00:18:30.954Z,5.60
2017-11-27T00:21:01.050Z,6.83
2017-11-27T00:23:31.062Z,6.63
2017-11-27T00:26:01.187Z,5.30
2017-11-27T00:28:31.195Z,5.83
2017-11-27T00:31:01.349Z,5.47
2017-11-27T00:36:31.552Z,7.03
2017-11-27T00:39:01.388Z,13.10
2017-11-27T00:41:31.628Z,8.37
2017-11-27T00:44:01.505Z,7.67
2017-11-27T00:46:31.499Z,5.93
2017-11-27T00:49:01.553Z,7.17
2017-11-27T00:51:31.571Z,6.83
2017-11-27T00:54:01.618Z,5.57
2017-11-27T00:56:31.686Z,5.80
2017-11-27T00:59:01.728Z,5.47
2017-11-27T01:01:31.748Z,6.10
2017-11-27T01:04:01.859Z,5.97
2017-11-27T01:06:31.912Z,5.70
2017-11-27T01:09:01.830Z,6.00
2017-11-27T01:14:12.184Z,5.87
2017-11-27T01:16:41.983Z,5.67
2017-11-27T01:19:12.198Z,6.13
2017-11-27T01:21:42.213Z,5.77
2017-11-27T01:24:12.236Z,7.27
2017-11-27T01:26:42.268Z,7.23
2017-11-27T01:29:12.188Z,6.60
2017-11-27T01:31:42.221Z,6.67
2017-11-27T01:34:12.375Z,7.30
2017-11-27T01:36:42.334Z,7.40
2017-11-27T01:39:12.535Z,7.17
2017-11-27T01:41:42.375Z,6.93
2017-11-27T01:44:12.586Z,6.60
2017-11-27T01:46:42.484Z,6.77
2017-11-27T01:49:12.496Z,6.20
2017-11-27T01:51:42.536Z,6.47
2017-11-27T01:54:12.646Z,6.77
2017-11-27T01:56:42.773Z,6.50
2017-11-27T01:59:12.830Z,6.13
2017-11-27T02:01:43.481Z,6.63
2017-11-27T02:04:19.450Z,6.63
2017-11-27T02:06:49.019Z,7.13
2017-11-27T02:09:18.576Z,6.77
2017-11-27T02:11:48.499Z,6.30
2017-11-27T02:14:18.570Z,6.97
2017-11-27T02:16:48.506Z,6.97
2017-11-27T02:19:18.610Z,5.70
2017-11-27T02:21:48.701Z,5.67
2017-11-27T02:24:18.646Z,5.27
2017-11-27T02:26:48.716Z,4.73
2017-11-27T02:29:18.700Z,5.27
2017-11-27T02:31:48.871Z,4.70
2017-11-27T02:34:18.795Z,5.17
2017-11-27T02:36:48.829Z,5.00
2017-11-27T02:39:18.847Z,5.10
2017-11-27T02:41:49.094Z,4.90
2017-11-27T02:44:18.956Z,4.67
2017-11-27T02:46:49.080Z,4.67
2017-11-27T02:49:19.118Z,6.63
2017-11-27T02:51:49.593Z,5.00
2017-11-27T02:54:19.181Z,4.93
2017-11-27T02:56:49.127Z,4.20
2017-11-27T02:59:19.253Z,4.57
2017-11-27T03:01:49.922Z,4.50
2017-11-27T03:04:19.463Z,4.20
2017-11-27T03:06:49.296Z,4.33
2017-11-27T03:09:19.385Z,5.03
2017-11-27T03:11:49.375Z,4.33
2017-11-27T03:14:19.390Z,3.90
2017-11-27T03:16:49.473Z,4.63
2017-11-27T03:19:19.632Z,4.13
2017-11-27T03:21:49.532Z,4.70
2017-11-27T03:24:19.452Z,5.20
2017-11-27T03:26:49.481Z,5.87
2017-11-27T03:29:19.568Z,5.90
2017-11-27T03:31:49.704Z,6.60
2017-11-27T03:34:19.637Z,7.37
2017-11-27T03:36:50.661Z,6.40
2017-11-27T03:39:20.285Z,7.00
2017-11-27T03:41:49.846Z,6.70
2017-11-27T03:44:19.769Z,7.37
2017-11-27T03:46:49.707Z,7.87
2017-11-27T03:49:19.794Z,8.43
2017-11-27T03:51:49.919Z,7.63
2017-11-27T03:54:19.863Z,6.30
2017-11-27T03:56:49.877Z,5.80
2017-11-27T03:59:19.868Z,5.50
2017-11-27T04:01:49.867Z,5.00
2017-11-27T04:04:19.919Z,4.87
2017-11-27T04:06:50.036Z,5.00
2017-11-27T04:09:20.089Z,4.40
2017-11-27T04:11:50.183Z,5.17
2017-11-27T04:14:20.092Z,4.27
2017-11-27T04:16:50.181Z,4.50
2017-11-27T04:19:20.235Z,4.30
2017-11-27T04:21:50.242Z,4.20
2017-11-27T04:24:20.400Z,4.77
2017-11-27T04:26:50.688Z,4.20
2017-11-27T04:29:20.708Z,4.80
2017-11-27T04:31:50.932Z,4.20
2017-11-27T04:34:20.847Z,4.27
2017-11-27T04:36:50.967Z,4.90
2017-11-27T04:39:21.000Z,5.13
2017-11-27T04:41:50.894Z,5.67
2017-11-27T04:44:20.938Z,4.90
2017-11-27T04:46:50.915Z,5.03
2017-11-27T04:49:20.943Z,4.50
2017-11-27T04:51:51.150Z,5.03
2017-11-27T04:54:21.113Z,4.97
2017-11-27T04:56:51.012Z,5.53
2017-11-27T04:59:21.108Z,4.90
2017-11-27T05:01:51.126Z,5.90
2017-11-27T05:04:21.175Z,4.90
2017-11-27T05:06:51.182Z,5.87
2017-11-27T05:09:21.103Z,4.50
2017-11-27T05:11:51.089Z,4.93
2017-11-27T05:14:21.224Z,4.90
2017-11-27T05:16:51.328Z,5.07
2017-11-27T05:19:21.447Z,4.77
2017-11-27T05:21:51.339Z,5.10
2017-11-27T05:24:21.379Z,5.47
2017-11-27T05:26:51.572Z,4.80
2017-11-27T05:29:21.475Z,5.90
2017-11-27T05:31:51.603Z,4.50
2017-11-27T05:34:21.556Z,4.73
2017-11-27T05:36:51.536Z,5.20
2017-11-27T05:39:21.586Z,4.87
2017-11-27T05:41:52.528Z,4.60
2017-11-27T05:44:22.122Z,4.60
2017-11-27T05:46:51.711Z,4.47
2017-11-27T05:49:21.882Z,5.07
2017-11-27T05:51:51.892Z,5.47
2017-11-27T05:54:22.006Z,4.57
2017-11-27T05:56:51.901Z,5.20
2017-11-27T05:59:22.045Z,4.50
2017-11-27T06:01:51.931Z,4.30
2017-11-27T06:04:21.920Z,3.90
2017-11-27T06:06:52.095Z,4.03
2017-11-27T06:09:22.118Z,4.03
2017-11-27T06:11:52.116Z,3.80
2017-11-27T06:14:22.041Z,3.73
2017-11-27T06:16:52.174Z,4.23
2017-11-27T06:19:22.290Z,4.13
2017-11-27T06:21:52.788Z,4.10
2017-11-27T06:24:22.334Z,4.30
2017-11-27T06:26:52.414Z,4.20
2017-11-27T06:29:22.370Z,4.63
2017-11-27T06:31:52.320Z,3.97
2017-11-27T06:34:22.452Z,5.00
2017-11-27T06:39:28.365Z,5.13
2017-11-27T06:41:57.940Z,5.00
2017-11-27T06:44:27.911Z,5.17
2017-11-27T06:46:57.744Z,8.63
2017-11-27T06:49:27.778Z,7.07
2017-11-27T06:51:57.913Z,7.07
2017-11-27T06:54:27.889Z,6.13
2017-11-27T06:56:57.959Z,6.67
2017-11-27T06:59:27.928Z,5.90
2017-11-27T07:01:57.959Z,7.33
2017-11-27T07:04:28.003Z,6.47
2017-11-27T07:06:57.982Z,7.03
2017-11-27T07:09:27.985Z,8.30
2017-11-27T07:11:58.114Z,7.00
2017-11-27T07:14:28.122Z,6.20
2017-11-27T07:16:58.027Z,8.03
2017-11-27T07:19:28.150Z,8.47
2017-11-27T07:21:58.171Z,8.10
2017-11-27T07:24:28.115Z,9.10
2017-11-27T07:26:58.183Z,7.47
2017-11-27T07:29:28.220Z,8.17
2017-11-27T07:31:58.438Z,7.67
2017-11-27T07:34:28.470Z,7.60
2017-11-27T07:36:58.719Z,8.40
2017-11-27T07:39:34.136Z,8.93
2017-11-27T07:42:03.666Z,8.23
2017-11-27T07:44:33.487Z,7.43
2017-11-27T07:47:03.496Z,8.67
2017-11-27T07:49:33.605Z,9.07
2017-11-27T07:52:03.653Z,7.83
2017-11-27T07:54:33.655Z,6.90
2017-11-27T07:57:03.748Z,7.80
2017-11-27T07:59:33.735Z,8.30
2017-11-27T08:02:03.799Z,8.30
2017-11-27T08:04:33.922Z,8.73
2017-11-27T08:07:03.890Z,7.57
2017-11-27T08:09:34.079Z,7.43
2017-11-27T08:12:03.868Z,7.47
2017-11-27T08:14:33.841Z,7.07
2017-11-27T08:17:03.885Z,9.43
2017-11-27T08:19:33.884Z,8.27
2017-11-27T08:22:03.945Z,7.13
2017-11-27T08:24:34.449Z,6.87
2017-11-27T08:27:04.191Z,6.83
2017-11-27T08:29:34.147Z,7.70
2017-11-27T08:32:04.267Z,7.93
2017-11-27T08:34:34.317Z,7.63
2017-11-27T08:37:04.555Z,6.97
2017-11-27T08:39:34.221Z,6.50
2017-11-27T08:42:04.454Z,9.33
2017-11-27T08:44:34.382Z,8.00
2017-11-27T08:47:04.451Z,7.70
2017-11-27T08:49:34.600Z,8.27
2017-11-27T08:52:04.735Z,6.70
2017-11-27T08:54:34.573Z,6.37
2017-11-27T08:57:04.627Z,7.80
2017-11-27T08:59:34.684Z,7.27
2017-11-27T09:02:04.964Z,7.17
2017-11-27T09:04:34.707Z,7.63
2017-11-27T09:07:04.796Z,7.10
2017-11-27T09:09:34.742Z,7.07
2017-11-27T09:12:05.024Z,6.83
2017-11-27T09:14:34.925Z,5.50
2017-11-27T09:17:05.073Z,7.33
2017-11-27T09:19:35.152Z,5.97
2017-11-27T09:22:05.083Z,6.97
2017-11-27T09:24:35.065Z,5.13
2017-11-27T09:27:05.052Z,6.93
2017-11-27T09:29:35.357Z,6.40
2017-11-27T09:32:05.392Z,7.03
2017-11-27T09:34:35.376Z,6.63
2017-11-27T09:37:05.267Z,6.73
2017-11-27T09:39:35.320Z,6.80
2017-11-27T09:42:05.643Z,6.47
2017-11-27T09:44:35.409Z,12.40
2017-11-27T09:47:05.409Z,5.80
2017-11-27T09:49:35.870Z,6.10
2017-11-27T09:52:05.426Z,6.07
2017-11-27T09:54:35.515Z,8.80
2017-11-27T09:57:05.567Z,5.77
2017-11-27T09:59:35.568Z,6.07
2017-11-27T10:02:05.683Z,8.37
2017-11-27T10:04:35.719Z,8.77
2017-11-27T10:07:05.722Z,6.03
2017-11-27T10:09:35.717Z,10.30
2017-11-27T10:12:05.747Z,6.70
2017-11-27T10:14:35.878Z,7.30
2017-11-27T10:17:06.228Z,5.97
2017-11-27T10:19:35.922Z,6.77
2017-11-27T10:22:05.967Z,8.47
2017-11-27T10:24:36.054Z,6.60
2017-11-27T10:27:06.157Z,5.30
2017-11-27T10:29:36.228Z,6.30
2017-11-27T10:32:06.996Z,6.80
2017-11-27T10:34:36.529Z,5.03
2017-11-27T10:37:06.331Z,6.30
2017-11-27T10:39:36.357Z,6.10
2017-11-27T10:42:06.467Z,7.00
2017-11-27T10:44:36.319Z,4.83
2017-11-27T10:47:06.236Z,7.07
2017-11-27T10:49:36.250Z,5.27
2017-11-27T10:52:06.274Z,6.07
2017-11-27T10:54:36.388Z,7.53
2017-11-27T10:57:06.411Z,6.03
2017-11-27T10:59:36.499Z,6.00
2017-11-27T11:02:06.467Z,6.77
2017-11-27T11:04:36.451Z,5.97
2017-11-27T11:07:06.009Z,9.60
2017-11-27T11:09:35.547Z,5.60
2017-11-27T11:12:05.355Z,5.90
2017-11-27T11:14:35.267Z,6.60
2017-11-27T11:17:05.510Z,9.63
2017-11-27T11:19:35.476Z,11.87
2017-11-27T11:22:05.492Z,39.33
2017-11-27T11:24:35.476Z,13.50
2017-11-27T11:27:05.716Z,13.20
2017-11-27T11:29:35.569Z,18.93
2017-11-27T11:32:05.689Z,23.47
2017-11-27T11:34:35.733Z,6.00
2017-11-27T11:37:05.748Z,6.47
2017-11-27T11:39:35.737Z,5.70
2017-11-27T11:42:05.761Z,6.13
2017-11-27T11:44:35.785Z,9.93
2017-11-27T11:47:05.743Z,6.00
2017-11-27T11:49:35.835Z,6.43
2017-11-27T11:52:05.828Z,5.00
2017-11-27T11:54:35.831Z,5.67
2017-11-27T11:57:05.880Z,4.43
2017-11-27T11:59:35.973Z,5.50
2017-11-27T12:02:05.979Z,4.73
2017-11-27T12:04:36.046Z,4.83
2017-11-27T12:07:05.981Z,4.07
2017-11-27T12:09:36.071Z,4.93
2017-11-27T12:12:06.090Z,5.13
2017-11-27T12:14:36.286Z,5.90
2017-11-27T12:17:06.187Z,4.67
2017-11-27T12:19:36.234Z,4.50
2017-11-27T12:22:06.271Z,5.53
2017-11-27T12:24:36.313Z,4.93
2017-11-27T12:27:06.423Z,4.50
2017-11-27T12:29:36.320Z,6.33
2017-11-27T12:32:06.526Z,4.07
2017-11-27T12:34:36.460Z,5.10
2017-11-27T12:37:06.471Z,4.30
2017-11-27T12:39:36.509Z,5.57
2017-11-27T12:42:06.483Z,4.13
2017-11-27T12:44:36.570Z,4.37
2017-11-27T12:47:06.495Z,4.40
2017-11-27T12:49:36.628Z,5.23
2017-11-27T12:52:06.694Z,3.90
2017-11-27T12:54:37.735Z,4.60
2017-11-27T12:57:07.309Z,5.13
2017-11-27T12:59:37.364Z,4.67
2017-11-27T13:02:06.922Z,8.27
2017-11-27T13:04:36.755Z,3.67
2017-11-27T13:07:06.731Z,5.13
2017-11-27T13:09:36.864Z,5.18
2017-11-27T13:12:06.934Z,5.17
2017-11-27T13:14:36.929Z,4.67
2017-11-27T13:17:07.042Z,3.97
2017-11-27T13:19:36.926Z,4.17
2017-11-27T13:22:06.950Z,4.07
2017-11-27T13:24:37.113Z,4.33
2017-11-27T13:27:07.022Z,3.80
2017-11-27T13:29:37.232Z,3.50
2017-11-27T13:32:07.021Z,4.47
2017-11-27T13:34:37.083Z,4.63
2017-11-27T13:37:07.168Z,4.30
2017-11-27T13:39:37.137Z,3.70
2017-11-27T13:42:07.226Z,3.00
2017-11-27T13:44:37.173Z,3.40
2017-11-27T13:47:08.222Z,3.50
2017-11-27T13:49:37.814Z,3.77
2017-11-27T13:52:07.407Z,3.40
2017-11-27T13:54:37.355Z,3.93
2017-11-27T13:57:07.514Z,4.80
2017-11-27T13:59:37.348Z,4.27
2017-11-27T14:02:07.355Z,5.43
2017-11-27T14:04:37.638Z,3.47
2017-11-27T14:07:07.599Z,3.67
2017-11-27T14:09:37.373Z,3.53
2017-11-27T14:12:08.635Z,4.20
2017-11-27T14:14:38.221Z,3.53
2017-11-27T14:17:07.795Z,3.53
2017-11-27T14:19:37.537Z,4.40
2017-11-27T14:22:07.691Z,3.60
2017-11-27T14:24:37.671Z,3.50
2017-11-27T14:27:07.691Z,3.13
2017-11-27T14:29:37.786Z,3.20
2017-11-27T14:32:07.807Z,3.80
2017-11-27T14:34:37.796Z,4.60
2017-11-27T14:37:07.899Z,4.13
2017-11-27T14:39:37.948Z,3.40
2017-11-27T14:42:07.892Z,3.97
2017-11-27T14:44:37.979Z,3.83
2017-11-27T14:47:08.001Z,3.87
2017-11-27T14:49:38.016Z,4.40
2017-11-27T14:52:08.227Z,4.77
2017-11-27T14:54:38.181Z,4.20
2017-11-27T14:57:08.425Z,4.23
2017-11-27T14:59:38.736Z,5.73
2017-11-27T15:02:08.276Z,3.47
2017-11-27T15:04:38.223Z,3.50
2017-11-27T15:07:08.335Z,3.50
2017-11-27T15:09:38.264Z,3.90
2017-11-27T15:12:08.414Z,4.47
2017-11-27T15:14:38.404Z,3.13
2017-11-27T15:17:08.461Z,3.50
2017-11-27T15:19:38.443Z,3.63
2017-11-27T15:22:08.589Z,3.40
2017-11-27T15:24:38.480Z,3.20
2017-11-27T15:27:08.600Z,3.30
2017-11-27T15:29:38.489Z,3.63
2017-11-27T15:32:08.767Z,4.60
2017-11-27T15:34:38.547Z,3.20
2017-11-27T15:37:08.662Z,5.33
2017-11-27T15:39:38.671Z,4.43
2017-11-27T15:42:08.741Z,3.07
2017-11-27T15:44:38.796Z,3.13
2017-11-27T15:47:08.733Z,3.10
2017-11-27T15:49:38.803Z,3.43
2017-11-27T15:52:08.784Z,4.43
2017-11-27T15:54:38.974Z,3.13
2017-11-27T15:57:08.923Z,3.47
2017-11-27T15:59:39.018Z,3.10
2017-11-27T16:02:08.967Z,2.83
2017-11-27T16:04:39.051Z,4.10
2017-11-27T16:07:09.108Z,5.90
2017-11-27T16:09:39.120Z,3.57
2017-11-27T16:12:09.226Z,2.90
2017-11-27T16:14:39.155Z,4.60
2017-11-27T16:17:09.252Z,4.40
2017-11-27T16:19:39.296Z,3.00
2017-11-27T16:22:09.207Z,4.63
2017-11-27T16:24:39.319Z,3.00
2017-11-27T16:27:09.312Z,5.37
2017-11-27T16:29:39.568Z,3.13
2017-11-27T16:32:09.907Z,3.57
2017-11-27T16:34:39.558Z,4.60
2017-11-27T16:37:09.466Z,3.87
2017-11-27T16:39:39.566Z,3.37
2017-11-27T16:42:09.380Z,3.77
2017-11-27T16:44:39.187Z,2.83
2017-11-27T16:47:08.791Z,4.60
2017-11-27T16:49:38.337Z,3.90
2017-11-27T16:52:08.224Z,2.80
2017-11-27T16:54:37.782Z,3.70
2017-11-27T16:57:07.402Z,2.93
2017-11-27T16:59:37.536Z,3.13
2017-11-27T17:02:07.583Z,3.47
2017-11-27T17:04:37.574Z,2.53
2017-11-27T17:07:07.644Z,3.13
2017-11-27T17:09:37.669Z,2.97
2017-11-27T17:12:07.676Z,2.83
2017-11-27T17:14:37.860Z,2.73
2017-11-27T17:17:08.254Z,3.00
2017-11-27T17:19:38.145Z,3.33
2017-11-27T17:22:08.232Z,3.77
2017-11-27T17:24:38.197Z,2.97
2017-11-27T17:27:08.345Z,3.50
2017-11-27T17:29:38.399Z,3.17
2017-11-27T17:32:08.400Z,3.13
2017-11-27T17:34:38.427Z,3.80
2017-11-27T17:37:09.297Z,3.13
2017-11-27T17:39:38.924Z,2.83
2017-11-27T17:42:08.551Z,4.27
2017-11-27T17:44:38.601Z,4.83
2017-11-27T17:47:08.773Z,4.47
2017-11-27T17:49:38.604Z,2.90
2017-11-27T17:52:08.723Z,2.70
2017-11-27T17:54:38.637Z,3.23
2017-11-27T17:57:09.542Z,3.40
2017-11-27T17:59:39.112Z,3.30
2017-11-27T18:02:09.249Z,3.10
2017-11-27T18:04:39.276Z,3.37
2017-11-27T18:07:09.376Z,3.53
2017-11-27T18:09:39.419Z,4.13
2017-11-27T18:12:09.468Z,4.87
2017-11-27T18:14:39.490Z,6.90
2017-11-27T18:17:10.054Z,3.87
2017-11-27T18:19:39.722Z,4.00
2017-11-27T18:22:09.494Z,3.80
2017-11-27T18:24:39.479Z,3.23
2017-11-27T18:27:09.597Z,4.00
2017-11-27T18:29:39.509Z,5.70
2017-11-27T18:32:09.527Z,4.10
2017-11-27T18:34:39.502Z,4.87
2017-11-27T18:37:09.694Z,4.97
2017-11-27T18:39:39.556Z,4.03
2017-11-27T18:42:09.512Z,3.00
2017-11-27T18:44:39.645Z,4.67
2017-11-27T18:47:09.719Z,4.13
2017-11-27T18:49:39.595Z,3.63
2017-11-27T18:52:09.621Z,3.63
2017-11-27T18:54:39.633Z,4.00
2017-11-27T18:57:10.594Z,5.87
2017-11-27T18:59:40.908Z,4.43
2017-11-27T19:02:10.455Z,4.70
2017-11-27T19:04:40.036Z,3.53
2017-11-27T19:07:09.814Z,3.33
2017-11-27T19:09:39.870Z,6.47
2017-11-27T19:12:10.155Z,6.00
2017-11-27T19:14:40.090Z,4.67
2017-11-27T19:17:10.177Z,3.80
2017-11-27T19:19:39.930Z,4.83
2017-11-27T19:22:10.271Z,4.03
2017-11-27T19:24:39.913Z,3.57
2017-11-27T19:27:10.032Z,3.90
2017-11-27T19:29:39.965Z,7.97
2017-11-27T19:32:10.197Z,3.73
2017-11-27T19:34:40.052Z,4.37
2017-11-27T19:37:10.236Z,3.23
2017-11-27T19:39:40.168Z,3.77
2017-11-27T19:42:10.897Z,3.80
2017-11-27T19:44:40.507Z,4.03
2017-11-27T19:47:10.261Z,3.70
2017-11-27T19:49:40.555Z,5.77
2017-11-27T19:52:10.243Z,4.80
2017-11-27T19:54:40.363Z,4.00
2017-11-27T19:57:10.470Z,4.90
2017-11-27T19:59:40.926Z,5.57
2017-11-27T20:02:10.524Z,4.00
2017-11-27T20:04:40.541Z,3.47
2017-11-27T20:07:10.661Z,3.67
2017-11-27T20:09:40.672Z,3.47
2017-11-27T20:12:10.616Z,4.43
2017-11-27T20:14:40.659Z,4.27
2017-11-27T20:17:11.950Z,4.00
2017-11-27T20:19:41.588Z,4.00
2017-11-27T20:22:11.378Z,3.80
2017-11-27T20:24:40.974Z,3.37
2017-11-27T20:27:10.823Z,4.93
2017-11-27T20:29:40.984Z,4.23
2017-11-27T20:32:11.010Z,5.07
2017-11-27T20:34:40.785Z,3.87
2017-11-27T20:37:10.933Z,3.70
2017-11-27T20:39:41.216Z,5.20
2017-11-27T20:42:11.132Z,3.80
2017-11-27T20:44:41.624Z,4.20
2017-11-27T20:47:11.707Z,4.23
2017-11-27T20:49:41.819Z,4.00
2017-11-27T20:52:11.532Z,5.33
2017-11-27T20:54:41.149Z,3.83
2017-11-27T20:57:11.359Z,3.77
2017-11-27T20:59:41.382Z,3.90
2017-11-27T21:02:11.405Z,4.30
2017-11-27T21:04:41.724Z,3.63
2017-11-27T21:07:11.843Z,4.67
2017-11-27T21:09:42.216Z,3.60
2017-11-27T21:12:12.051Z,3.83
2017-11-27T21:14:41.670Z,3.43
2017-11-27T21:17:11.966Z,3.60
2017-11-27T21:19:41.939Z,4.23
2017-11-27T21:22:11.763Z,5.57
2017-11-27T21:24:41.602Z,3.80
2017-11-27T21:27:11.465Z,5.07
2017-11-27T21:29:41.588Z,3.73
2017-11-27T21:32:11.527Z,4.50
2017-11-27T21:34:41.484Z,4.67
2017-11-27T21:37:11.602Z,5.07
2017-11-27T21:39:43.120Z,3.60
2017-11-27T21:42:13.629Z,3.30
2017-11-27T21:44:43.209Z,3.93
2017-11-27T21:47:12.784Z,4.77
2017-11-27T21:49:42.360Z,5.77
2017-11-27T21:52:11.935Z,3.93
2017-11-27T21:54:41.546Z,3.80
2017-11-27T21:57:11.736Z,3.00
2017-11-27T21:59:41.667Z,5.37
2017-11-27T22:02:11.752Z,3.63
2017-11-27T22:04:41.988Z,3.90
2017-11-27T22:07:11.822Z,3.33
2017-11-27T22:09:41.809Z,3.83
2017-11-27T22:12:11.964Z,3.87
2017-11-27T22:14:41.963Z,3.37
2017-11-27T22:17:11.895Z,3.40
2017-11-27T22:19:41.984Z,4.77
2017-11-27T22:22:12.004Z,3.60
2017-11-27T22:24:42.056Z,3.40
2017-11-27T22:27:12.060Z,4.30
2017-11-27T22:29:42.062Z,3.83
2017-11-27T22:32:12.051Z,3.37
2017-11-27T22:34:42.123Z,3.70
2017-11-27T22:37:12.167Z,3.43
2017-11-27T22:39:42.191Z,3.00
2017-11-27T22:42:12.178Z,3.80
2017-11-27T22:44:42.180Z,3.00
2017-11-27T22:47:12.240Z,5.03
2017-11-27T22:49:42.147Z,3.83
2017-11-27T22:52:12.548Z,3.30
2017-11-27T22:54:42.184Z,3.37
2017-11-27T22:57:12.194Z,3.00
2017-11-27T22:59:42.247Z,3.50
2017-11-27T23:02:12.285Z,4.10
2017-11-27T23:04:42.335Z,3.90
2017-11-27T23:07:12.433Z,4.20
2017-11-27T23:09:42.372Z,3.43
2017-11-27T23:12:12.422Z,3.47
2017-11-27T23:14:42.275Z,3.87
2017-11-27T23:17:12.319Z,3.33
2017-11-27T23:19:42.508Z,3.50
2017-11-27T23:22:12.499Z,4.07
2017-11-27T23:24:42.466Z,4.43
2017-11-27T23:27:12.591Z,3.70
2017-11-27T23:29:42.467Z,3.73
2017-11-27T23:32:12.490Z,3.20
2017-11-27T23:34:43.123Z,3.37
2017-11-27T23:37:12.721Z,3.13
2017-11-27T23:39:42.738Z,3.37
2017-11-27T23:42:12.792Z,3.47
2017-11-27T23:44:42.775Z,3.03
2017-11-27T23:47:12.826Z,3.20
2017-11-27T23:49:42.915Z,3.47
2017-11-27T23:52:12.923Z,2.90
2017-11-27T23:54:43.096Z,2.67
2017-11-27T23:57:13.148Z,3.37
2017-11-27T23:59:43.156Z,3.23
